Search for airport 
image banner adimage banner ad
image banner ad

DABT - Batna / Mostepha Ben Boulaid

Located in Batna, Algeria

ICAO - DABT, IATA - BLJ

Data provided by Airmate  

General information

Coordinates: N35°45'33" E6°19'21"
Elevation is 2700 feet MSL.
 
Rated:
View ratings: [VIEW]


View others Airports in Batna Province

Operational data

Open for public use
Current time UTC:
Current local time:
Weather
METAR: DABT 122300Z 00000KT CAVOK 25/10 Q1019
TAF: TAF DABT 122300Z 1300/1324 16006KT CAVOK BECMG 1308/1310 30012KT TEMPO 1312/1323 FEW030TCU PROB30 TEMPO 1313/1322 16015G35KT 4000 -TSRA FEW023CB BKN030
View NOTAMs / SUP AIP / TFR affecting this airport [VIEW]
Communications frequencies: [VIEW]

Runways:

RWY identifierQFULength (ft)Width (ft)SurfaceLDA (ft)
0555°9843148ASP
23235°9843148

Airport contact information

Address: Batna Algeria

Satellite view of DABT